Date,TemperatureHighF,TemperatureAvgF,TemperatureLowF,DewpointHighF,DewpointAvgF,DewpointLowF,HumidityHigh,HumidityAvg,HumidityLow,PressureMaxIn,PressureMinIn,WindSpeedMaxMPH,WindSpeedAvgMPH,GustSpeedMaxMPH,PrecipitationSumIn
2014-2-1,45,35,32,34,26,-100,100,74,46,0.00,40.00,3,0,11,0.04
2014-2-2,36,33,30,34,30,26,100,93,82,0.00,40.00,3,1,8,0.00
2014-2-3,35,29,23,24,14,6,87,56,33,0.00,40.00,4,1,9,0.01
2014-2-4,33,25,22,19,14,11,81,63,49,0.00,40.00,0,0,7,0.01
2014-2-5,28,21,14,16,6,0,74,54,39,0.00,40.00,7,3,17,0.00
2014-2-6,25,18,12,5,0,-2,60,47,32,0.00,40.00,6,1,11,0.00
2014-2-7,35,24,17,15,9,3,78,55,39,0.00,40.00,4,0,11,0.00
2014-2-8,33,27,22,17,11,5,59,51,40,0.00,40.00,4,1,10,0.00
2014-2-9,39,32,27,31,24,14,100,74,54,0.00,40.00,1,0,8,0.00
2014-2-10,46,38,29,44,36,28,100,91,74,0.00,40.00,7,2,16,0.40
2014-2-11,46,40,35,41,32,21,100,73,48,0.00,40.00,7,1,23,0.09
2014-2-12,51,44,36,40,36,30,100,73,52,0.00,40.00,21,5,45,0.10
2014-2-13,51,42,36,38,33,23,100,73,43,0.00,40.00,8,3,19,0.19
2014-2-14,50,42,37,41,38,35,100,89,61,0.00,40.00,6,2,16,0.57
2014-2-15,43,38,35,43,33,-100,100,85,67,0.00,40.00,8,1,18,0.58
2014-2-16,44,36,32,37,33,28,100,89,59,0.00,40.00,10,3,31,1.37
2014-2-17,42,37,34,37,33,24,100,88,56,0.00,40.00,7,2,22,1.16
2014-2-18,43,36,32,42,32,24,100,85,61,0.00,40.00,12,3,33,0.72
2014-2-19,44,36,30,33,30,23,100,78,54,0.00,40.00,6,1,19,0.11
2014-2-20,49,38,34,38,32,20,100,80,39,0.00,40.00,6,1,16,0.08
2014-2-21,41,35,31,33,28,22,100,78,55,0.00,40.00,3,0,11,0.01
2014-2-22,34,32,30,34,27,-100,100,86,63,0.00,40.00,3,0,5,0.09
2014-2-23,34,32,30,34,32,30,100,100,93,0.00,40.00,1,0,6,0.01
2014-2-24,35,32,30,33,32,30,100,98,85,0.00,40.00,0,0,4,0.41
2014-2-25,38,34,32,38,34,31,100,99,94,0.00,40.00,0,0,6,0.36
2014-2-26,45,37,32,38,35,31,100,93,71,0.00,40.00,0,0,5,0.01
2014-2-27,52,42,35,43,38,34,100,84,60,0.00,40.00,1,0,7,0.00
2014-2-28,49,40,33,43,35,20,100,82,49,0.00,40.00,0,0,6,0.02